Latest Weather Observations for Moranbah Airport

IDQ60801

Issued at 7:02 am EST Thursday 2 April 2015 (issued every 30 minutes, with the page automatically refreshed every 10 minutes)

About weather observations | Map of weather stations | Latest weather observations for QLD | Other Formats
Station Details ID: 034035 Name: MORANBAH AIRPORT Lat: -22.06 Lon: 148.08 Height: 232.2 m
Data from the previous 72 hours. | See also: Recent months at Moranbah Airport
Date/Time
EST
Temp
°C
App
Temp
°C
Dew
Point
Rel
Hum
%
Delta-T
°C
Wind Press
QNH
hPa
Press
MSL
hPa
Rain
since 9 am
mm
Dir
 
Spd
km/h
Gust
km/h
Spd
kts
Gust
kts
02/07:00am 19.9 19.9 18.2 90 1.1 SE 15 20 8 11 1016.1 1015.0 0.0
02/06:30am 19.4 19.3 17.9 91 0.9 SE 15 20 8 11 1015.8 1014.7 0.0
02/06:00am 19.0 18.9 17.8 93 0.7 SE 15 19 8 10 1015.5 1014.4 0.0
02/05:55am 18.8 19.1 17.8 94 0.6 SE 13 17 7 9 1015.4 1014.3 0.0
02/05:30am 18.5 17.8 17.3 93 0.7 SE 17 20 9 11 1015.2 1014.1 0.0
02/05:00am 18.4 18.0 17.2 93 0.7 SE 15 19 8 10 1014.9 1013.8 0.0
02/04:30am 17.7 17.5 16.7 94 0.6 SE 13 15 7 8 1014.6 1013.5 0.0
02/04:00am 17.7 17.8 16.6 93 0.7 SE 11 13 6 7 1014.6 1013.5 0.0
02/03:30am 18.2 18.1 17.0 93 0.7 SSE 13 15 7 8 1014.5 1013.4 0.0
02/03:00am 18.1 18.7 16.8 92 0.8 SE 9 9 5 5 1014.6 1013.5 0.0
02/02:30am 18.1 18.2 16.6 91 0.9 SE 11 13 6 7 1014.8 1013.7 0.0
02/02:00am 18.4 18.7 16.9 91 0.9 SE 11 13 6 7 1015.0 1013.9 0.0
02/01:30am 18.7 18.7 17.2 91 0.9 SSE 13 13 7 7 1015.3 1014.2 0.0
02/01:00am 18.9 19.3 17.2 90 1.0 SE 11 15 6 8 1015.6 1014.5 0.0
02/12:30am 19.0 19.3 17.1 89 1.2 SE 11 13 6 7 1016.0 1014.9 0.0
02/12:00am 19.2 19.2 17.2 88 1.2 SSE 13 13 7 7 1016.0 1014.9 0.0
 
Date/Time
EST
Temp
°C
App
Temp
°C
Dew
Point
Rel
Hum
%
Delta-T
°C
Wind Press
QNH
hPa
Press
MSL
hPa
Rain
since 9 am
mm
Dir
 
Spd
km/h
Gust
km/h
Spd
kts
Gust
kts
01/11:30pm 20.0 20.8 17.4 85 1.6 SSE 9 11 5 6 1016.2 1015.1 0.0
01/11:00pm 20.5 20.3 17.5 83 1.9 SE 15 17 8 9 1016.3 1015.2 0.0
01/10:30pm 21.1 20.9 17.7 81 2.1 ESE 15 20 8 11 1016.4 1015.3 0.0
01/10:00pm 21.6 21.1 17.8 79 2.4 ESE 17 22 9 12 1016.4 1015.3 0.0
01/09:30pm 21.8 21.6 17.6 77 2.6 ESE 15 19 8 10 1016.4 1015.3 0.0
01/09:00pm 22.6 21.4 17.5 73 3.2 ESE 20 26 11 14 1016.2 1015.1 0.0
01/08:30pm 23.4 22.5 18.1 72 3.4 E 20 30 11 16 1015.8 1014.7 0.0
01/08:00pm 24.5 22.6 17.7 66 4.3 E 24 33 13 18 1015.4 1014.3 0.0
01/07:30pm 25.4 23.5 17.6 62 4.9 E 24 32 13 17 1014.8 1013.7 0.0
01/07:00pm 26.5 24.6 15.8 51 6.6 ESE 20 28 11 15 1014.2 1013.1 0.0
01/06:30pm 26.9 25.5 14.6 46 7.5 ESE 15 20 8 11 1013.9 1012.8 0.0
01/06:00pm 28.3 26.4 15.2 44 8.1 ESE 19 26 10 14 1013.5 1012.4 0.0
01/05:30pm 29.3 27.6 14.7 41 8.9 SE 17 22 9 12 1013.3 1012.2 0.0
01/05:00pm 29.3 25.8 13.5 38 9.5 SE 24 33 13 18 1012.9 1011.7 0.0
01/04:30pm 31.1 29.1 13.8 34 10.5 SE 17 32 9 17 1012.8 1011.6 0.0
01/04:00pm 31.7 30.4 14.8 36 10.5 ESE 15 24 8 13 1012.9 1011.7 0.0
01/03:30pm 31.2 28.8 14.4 36 10.3 SE 20 35 11 19 1012.9 1011.7 0.0
01/03:00pm 30.6 28.9 14.7 38 9.8 E 17 22 9 12 1013.1 1012.0 0.0
01/02:30pm 31.0 29.4 15.0 38 9.9 ESE 17 32 9 17 1013.7 1012.6 0.0
01/02:00pm 29.3 27.7 15.1 42 8.8 ESE 17 39 9 21 1014.2 1013.1 0.0
01/01:30pm 30.3 28.6 16.3 42 8.8 E 20 30 11 16 1014.6 1013.5 0.0
01/01:00pm 28.2 26.2 16.5 49 7.3 SE 22 32 12 17 1015.1 1014.0 0.0
01/12:30pm 28.8 27.3 16.4 47 7.8 ESE 19 30 10 16 1015.5 1014.4 0.0
01/12:00pm 28.4 26.7 16.3 47 7.6 ESE 20 33 11 18 1016.1 1015.0 0.0
01/11:30am 28.6 27.7 17.8 52 6.9 ESE 19 30 10 16 1017.0 1015.9 0.0
01/11:00am 26.9 26.0 18.2 59 5.6 ESE 20 32 11 17 1017.5 1016.4 0.0
01/10:30am 25.4 24.1 17.3 61 5.1 ESE 20 28 11 15 1018.0 1016.9 0.0
01/10:00am 26.3 25.2 18.7 63 4.9 ESE 22 28 12 15 1018.2 1017.1 0.0
01/09:30am 24.8 23.1 17.3 63 4.7 E 22 32 12 17 1018.4 1017.0 0.0
01/09:00am 24.9 24.0 18.1 66 4.3 ESE 20 32 11 17 1018.5 1017.1 0.4
01/08:30am 23.1 21.6 17.6 71 3.4 ESE 22 30 12 16 1018.4 1017.0 0.4
01/08:00am 22.4 20.8 17.5 74 3.1 SE 22 28 12 15 1018.3 1016.9 0.4
01/07:30am 21.4 20.3 17.8 80 2.2 SE 20 30 11 16 1017.9 1016.5 0.4
01/07:00am 20.1 19.7 18.0 88 1.3 SE 17 24 9 13 1017.7 1016.3 0.4
01/06:30am 19.3 20.2 18.3 94 0.6 SSE 11 13 6 7 1017.5 1016.1 0.4
01/06:00am 19.4 20.3 18.4 94 0.6 SE 11 13 6 7 1017.2 1015.8 0.4
01/05:30am 19.7 20.7 18.7 94 0.6 ESE 11 13 6 7 1017.0 1015.6 0.4
01/05:00am 19.6 21.0 18.6 94 0.6 SE 9 13 5 7 1016.8 1015.4 0.4
01/04:30am 19.7 20.7 18.7 94 0.6 SE 11 13 6 7 1016.5 1015.1 0.4
01/04:00am 19.6 20.2 18.6 94 0.6 SE 13 17 7 9 1016.4 1015.0 0.4
01/03:30am 19.9 19.8 18.7 93 0.8 SE 17 20 9 11 1016.4 1015.0 0.4
01/03:00am 20.1 20.0 18.8 92 0.8 SE 17 20 9 11 1016.6 1015.2 0.4
01/02:30am 20.7 21.3 19.4 92 0.8 SE 15 20 8 11 1016.9 1015.5 0.4
01/02:00am 20.8 21.2 19.1 90 1.1 ESE 15 19 8 10 1017.1 1015.7 0.4
01/01:30am 21.0 21.4 19.1 89 1.2 SE 15 20 8 11 1017.3 1015.9 0.2
01/01:00am 21.5 22.1 19.4 88 1.3 ESE 15 19 8 10 1017.7 1016.3 0.2
01/12:30am 21.7 22.9 19.8 89 1.2 E 13 17 7 9 1018.1 1016.7 0.2
01/12:00am 21.8 23.1 20.1 90 1.1 ESE 13 17 7 9 1018.3 1016.9 0.2
 
Date/Time
EST
Temp
°C
App
Temp
°C
Dew
Point
Rel
Hum
%
Delta-T
°C
Wind Press
QNH
hPa
Press
MSL
hPa
Rain
since 9 am
mm
Dir
 
Spd
km/h
Gust
km/h
Spd
kts
Gust
kts
31/11:30pm 21.6 22.7 19.7 89 1.2 E 13 17 7 9 1018.5 1017.1 0.2
31/11:00pm 21.3 22.1 19.0 87 1.5 ESE 13 17 7 9 1018.6 1017.2 0.2
31/10:30pm 21.2 21.0 18.6 85 1.6 SE 17 20 9 11 1018.6 1017.2 0.2
31/10:00pm 21.6 21.9 18.8 84 1.8 SE 15 19 8 10 1018.7 1017.3 0.2
31/09:30pm 22.1 21.3 17.9 77 2.6 SE 19 22 10 12 1018.3 1016.9 0.2
31/09:00pm 23.0 21.6 17.0 69 3.7 ESE 20 28 11 15 1018.3 1016.9 0.0
31/08:30pm 25.2 25.3 15.5 55 5.9 SE 9 11 5 6 1018.5 1017.1 0.0
31/08:00pm 26.1 25.3 15.2 51 6.6 SE 13 19 7 10 1017.6 1016.2 0.0
31/07:30pm 26.5 23.9 14.9 49 7.1 SE 22 28 12 15 1017.2 1015.8 0.0
31/07:00pm 26.7 24.2 15.1 49 7.1 SE 22 26 12 14 1017.1 1015.7 0.0
31/06:30pm 27.0 25.3 15.7 50 7.0 SE 19 26 10 14 1016.9 1015.5 0.0
31/06:00pm 27.8 25.9 15.1 46 7.8 ESE 19 26 10 14 1016.4 1015.0 0.0
31/05:30pm 28.5 26.1 14.3 41 8.6 ESE 20 28 11 15 1016.3 1014.9 0.0
31/05:00pm 28.7 26.6 15.2 43 8.3 ESE 20 30 11 16 1016.1 1014.7 0.0
31/04:30pm 29.2 26.5 15.7 44 8.4 ESE 24 33 13 18 1016.0 1014.6 0.0
31/04:00pm 29.3 27.3 16.5 46 8.1 ESE 22 32 12 17 1015.9 1014.5 0.0
31/03:30pm 29.4 27.9 17.6 49 7.6 SE 22 30 12 16 1015.8 1014.4 0.0
31/03:00pm 29.5 27.8 17.3 47 7.8 SE 22 39 12 21 1016.1 1014.7 0.0
31/02:30pm 28.9 26.4 17.1 49 7.5 SE 26 39 14 21 1016.3 1014.9 0.0
31/02:00pm 29.0 27.8 17.5 49 7.3 SE 20 28 11 15 1016.9 1015.5 0.0
31/01:30pm 28.5 27.4 17.7 52 6.9 SE 20 28 11 15 1017.4 1016.0 0.0
31/01:00pm 27.9 27.9 18.0 55 6.3 SE 15 24 8 13 1017.9 1016.5 0.0
31/12:30pm 27.7 27.5 18.4 57 6.0 ESE 17 24 9 13 1018.3 1016.9 0.0
31/12:00pm 27.2 26.9 18.2 58 5.8 ESE 17 20 9 11 1019.1 1017.7 0.0
31/11:30am 26.8 27.4 18.6 60 5.3 ESE 13 22 7 12 1019.6 1018.2 0.0
31/11:00am 26.0 26.1 19.2 66 4.4 ESE 17 22 9 12 1020.0 1018.6 0.0
31/10:30am 25.7 25.5 19.3 67 4.2 E 19 24 10 13 1020.2 1018.8 0.0
31/10:00am 25.2 24.8 18.9 68 4.0 ESE 19 22 10 12 1020.3 1018.9 0.0
31/09:30am 24.8 25.2 19.0 70 3.7 ESE 15 20 8 11 1020.5 1019.1 0.0
31/09:00am 24.3 23.7 18.5 70 3.7 ESE 19 26 10 14 1020.3 1018.9 0.0
31/08:30am 23.4 22.5 17.8 71 3.5 ESE 19 24 10 13 1020.0 1018.6 0.0
31/08:00am 22.9 22.0 17.8 73 3.2 ESE 19 22 10 12 1019.9 1018.5 0.0
31/07:30am 21.5 20.7 17.9 80 2.3 SE 19 20 10 11 1019.5 1018.1 0.0
31/07:00am 20.6 20.1 17.8 84 1.7 ESE 17 20 9 11 1019.1 1017.7 0.0
31/06:30am 20.1 19.8 18.2 89 1.2 SE 17 19 9 10 1018.9 1017.5 0.0
31/06:00am 19.4 19.7 17.9 91 0.9 SE 13 15 7 8 1018.6 1017.2 0.0
31/05:30am 19.7 20.1 18.2 91 0.9 SE 13 15 7 8 1018.2 1016.8 0.0
31/05:00am 20.1 20.2 18.4 90 1.1 SE 15 17 8 9 1018.0 1016.6 0.0
31/04:30am 20.2 20.8 18.5 90 1.1 SE 13 17 7 9 1018.0 1016.6 0.0
31/04:00am 20.7 21.4 18.8 89 1.2 ESE 13 15 7 8 1017.9 1016.5 0.0
31/03:30am 20.6 21.3 18.9 90 1.1 ESE 13 15 7 8 1017.8 1016.4 0.0
31/03:00am 20.9 21.8 19.2 90 1.1 SE 13 17 7 9 1017.8 1016.4 0.0
31/02:30am 21.0 21.9 19.3 90 1.1 SSE 13 15 7 8 1018.1 1016.7 0.0
31/02:00am 21.1 21.9 19.0 88 1.3 SE 13 13 7 7 1018.4 1017.0 0.0
31/01:30am 21.7 23.0 19.3 86 1.5 SE 11 15 6 8 1018.8 1017.4 0.0
31/01:00am 22.2 23.2 19.4 84 1.8 ESE 13 17 7 9 1019.2 1017.8 0.0
31/12:30am 22.5 23.2 19.7 84 1.8 ESE 15 19 8 10 1019.6 1018.2 0.0
31/12:00am 22.4 23.6 19.9 86 1.6 SE 13 15 7 8 1019.8 1018.4 0.0
 
Date/Time
EST
Temp
°C
App
Temp
°C
Dew
Point
Rel
Hum
%
Delta-T
°C
Wind Press
QNH
hPa
Press
MSL
hPa
Rain
since 9 am
mm
Dir
 
Spd
km/h
Gust
km/h
Spd
kts
Gust
kts
30/11:30pm 22.9 23.7 19.9 83 1.9 ESE 15 17 8 9 1019.9 1018.5 0.0
30/11:00pm 23.3 24.6 20.1 82 2.1 E 13 15 7 8 1019.8 1018.4 0.0
30/10:30pm 23.8 24.7 20.1 80 2.4 E 15 19 8 10 1020.0 1018.6 0.0
30/10:00pm 24.0 24.9 20.1 79 2.5 E 15 20 8 11 1020.2 1018.8 0.0
30/09:30pm 24.3 25.3 20.2 78 2.7 ENE 15 20 8 11 1020.3 1018.9 0.0
30/09:00pm 24.2 26.1 19.7 76 2.9 ENE 9 11 5 6 1020.0 1018.6 0.0
30/08:30pm 24.9 26.0 19.7 73 3.4 NE 13 17 7 9 1019.6 1018.2 0.0
30/08:00pm 25.4 26.6 19.8 71 3.6 NE 13 15 7 8 1019.4 1018.0 0.0
30/07:30pm 25.9 26.7 19.8 69 4.0 NE 15 22 8 12 1019.0 1017.6 0.0
30/07:00pm 26.2 27.4 19.1 65 4.6 NE 11 15 6 8 1018.8 1017.4 0.0
30/06:30pm 26.9 27.7 19.0 62 5.1 NNE 13 17 7 9 1018.4 1017.0 0.0
30/06:00pm 27.5 27.1 19.0 59 5.5 NNE 19 24 10 13 1018.0 1016.6 0.0
30/05:30pm 28.8 29.0 19.4 56 6.2 NE 17 24 9 13 1017.6 1016.2 0.0
30/05:00pm 29.0 28.9 19.6 57 6.2 NE 19 24 10 13 1017.5 1016.1 0.0
30/04:30pm 28.9 28.8 18.7 54 6.6 NE 17 22 9 12 1017.4 1016.0 0.0
30/04:00pm 28.5 25.1 17.7 52 6.9 ENE 32 39 17 21 1017.0 1015.6 0.0
30/03:30pm 32.2 31.8 18.0 42 9.2 E 17 24 9 13 1016.6 1015.2 0.0
30/03:00pm 31.4 31.0 18.0 44 8.7 ENE 17 26 9 14 1016.8 1015.4 0.0
30/02:30pm 32.3 32.4 19.2 46 8.7 ENE 17 30 9 16 1017.0 1015.6 0.0
30/02:00pm 31.4 30.5 19.1 48 8.1 NE 22 35 12 19 1017.4 1016.0 0.0
30/01:30pm 30.4 29.0 18.8 50 7.6 E 24 35 13 19 1017.8 1016.4 0.0
30/01:00pm 30.2 28.6 19.2 51 7.2 NNE 26 37 14 20 1018.1 1016.7 0.0
30/12:30pm 29.5 26.9 19.5 55 6.6 NE 32 43 17 23 1018.6 1017.2 0.0
30/12:00pm 29.9 28.1 18.7 51 7.3 ESE 26 37 14 20 1019.0 1017.6 0.0
30/11:30am 29.6 28.7 19.0 53 6.9 E 22 35 12 19 1019.8 1018.4 0.0
30/11:00am 28.4 27.5 19.1 57 6.1 ESE 22 32 12 17 1020.4 1019.0 0.0
30/10:30am 28.4 27.0 18.8 56 6.2 E 24 33 13 18 1020.7 1019.4 0.0
30/10:00am 27.4 26.0 18.9 59 5.5 E 24 39 13 21 1020.9 1019.6 0.0
30/09:30am 26.6 25.4 19.2 64 4.8 E 24 35 13 19 1020.9 1019.6 0.0
30/09:00am 26.7 26.5 19.8 66 4.5 ESE 20 30 11 16 1020.9 1019.6 0.0
30/08:30am 25.9 26.1 20.5 72 3.6 SE 20 26 11 14 1021.0 1019.7 0.0
30/08:00am 24.4 24.1 19.5 74 3.2 ESE 20 30 11 16 1020.7 1019.4 0.0
30/07:30am 24.1 24.2 19.2 74 3.2 SE 17 24 9 13 1020.4 1019.0 0.0

Other Formats:

Comma delimited format used in spreadsheet applications
http://www.bom.gov.au/fwo/IDQ60801/IDQ60801.94397.axf

JavaScript Object Notation format (JSON) in row-major order
http://www.bom.gov.au/fwo/IDQ60801/IDQ60801.94397.json